Forside
METAR-TAF:

METAR-TAF

Lufthavne :

Maple Lake Municipal Airport

Maple Lake, Minnesota, USA

Breddekreds: 45-14-10N, længdekreds: 093-59-08W, højde: 313 m

Aktuelle vejr

Denne rapport blev lavet for 19 minutter siden, kl. 11:55 UTC
Vind stille
Temperatur 18°C
Fugtighed 88%
Tryk 1016 hPa
Sigt: 16.1 km

METAR: KMGG 121155Z AUTO 00000KT 10SM 18/16 A2999 RMK AO2 LTG DSNT SW AND W T01810160 10181 20165

Tid: 07:14 (12:14 UTC)


TAF: fraværende

Vejrobservationer og prognoser fra mere end 4000 lufthavne (METAR og TAF).

De gule og røde prikker repræsenterer de meteorologiske stationer.

Flyt musen over at se navnet på stationen.

Så klik over at se vejr observationer og prognoser.

At skifte det kort: Klik på de grønne knapper med et sort kors for at zoome ind; på den grønne knap med en bindestreg for at zoome ud; eller på de grønne pile for tilstødende kort.


METAR-TAF: